createdAt,value
2022-08-10T00:00:58.668Z,80.05
2022-08-10T00:03:42.212Z,80.25
2022-08-10T00:06:10.514Z,80.56
2022-08-10T00:08:39.306Z,80.64
2022-08-10T00:11:16.825Z,80.83
2022-08-10T00:13:53.330Z,81.17
2022-08-10T00:16:41.989Z,81.95
2022-08-10T00:19:19.469Z,81.44
2022-08-10T00:21:49.753Z,80.92
2022-08-10T00:24:25.339Z,80.80
2022-08-10T00:27:52.712Z,80.29
2022-08-10T00:30:00.214Z,79.83
2022-08-10T00:32:38.145Z,79.23
2022-08-10T00:35:16.242Z,79.12
2022-08-10T00:38:04.314Z,78.72
2022-08-10T00:40:47.670Z,78.66
2022-08-10T00:43:23.579Z,78.60
2022-08-10T00:46:09.923Z,78.53
2022-08-10T00:48:46.713Z,78.36
2022-08-10T00:51:40.353Z,78.24
2022-08-10T00:54:26.890Z,78.22
2022-08-10T00:57:16.021Z,78.39
2022-08-10T01:00:00.460Z,78.31
2022-08-10T01:02:33.039Z,78.67
2022-08-10T01:05:19.953Z,78.55
2022-08-10T01:08:15.849Z,78.53
2022-08-10T01:12:37.893Z,79.07
2022-08-10T01:14:18.844Z,78.73
2022-08-10T01:17:10.052Z,78.74
2022-08-10T01:20:09.498Z,79.05
2022-08-10T01:23:10.868Z,79.17
2022-08-10T01:26:11.531Z,78.95
2022-08-10T01:29:11.527Z,79.44
2022-08-10T01:31:53.732Z,79.60
2022-08-10T01:34:49.194Z,79.33
2022-08-10T01:37:40.592Z,79.67
2022-08-10T01:40:16.818Z,79.89
2022-08-10T01:42:50.583Z,79.81
2022-08-10T01:45:28.315Z,79.82
2022-08-10T01:48:26.217Z,79.87
2022-08-10T01:51:03.231Z,79.88
2022-08-10T01:53:42.792Z,79.84
2022-08-10T01:56:22.955Z,79.77
2022-08-10T01:59:14.297Z,79.66
2022-08-10T02:01:47.842Z,79.73
2022-08-10T02:04:25.936Z,80.14
2022-08-10T02:07:02.382Z,80.37
2022-08-10T02:09:48.194Z,80.33
2022-08-10T02:12:29.086Z,80.88
2022-08-10T02:15:04.255Z,80.92
2022-08-10T02:17:57.988Z,80.75
2022-08-10T02:20:51.397Z,80.70
2022-08-10T02:23:42.997Z,80.97
2022-08-10T02:26:13.142Z,81.33
2022-08-10T02:28:42.092Z,81.66
2022-08-10T02:31:39.332Z,81.87
2022-08-10T02:34:18.152Z,81.75
2022-08-10T02:37:03.720Z,81.73
2022-08-10T02:39:47.896Z,81.81
2022-08-10T02:45:29.743Z,81.92
2022-08-10T02:45:46.291Z,81.92
2022-08-10T02:48:21.433Z,82.07
2022-08-10T02:51:04.003Z,82.40
2022-08-10T02:53:58.866Z,82.84
2022-08-10T02:56:39.580Z,82.60
2022-08-10T02:59:39.741Z,82.74
2022-08-10T03:02:23.933Z,82.97
2022-08-10T03:05:17.234Z,83.09
2022-08-10T03:08:21.655Z,83.29
2022-08-10T03:10:57.932Z,83.35
2022-08-10T03:13:47.091Z,83.53
2022-08-10T03:16:37.830Z,83.61
2022-08-10T03:19:08.363Z,84.26
2022-08-10T03:22:03.540Z,83.91
2022-08-10T03:24:41.682Z,83.92
2022-08-10T03:27:25.347Z,84.25
2022-08-10T03:30:32.942Z,83.89
2022-08-10T03:33:08.544Z,84.27
2022-08-10T03:35:42.380Z,84.41
2022-08-10T03:38:35.860Z,84.77
2022-08-10T03:41:35.754Z,84.96
2022-08-10T03:44:21.674Z,84.92
2022-08-10T03:47:16.297Z,84.95
2022-08-10T03:49:55.538Z,84.77
2022-08-10T03:52:31.504Z,84.52
2022-08-10T03:55:09.040Z,84.63
2022-08-10T03:58:06.366Z,84.36
2022-08-10T04:00:36.323Z,84.54
2022-08-10T04:03:17.447Z,84.58
2022-08-10T04:06:01.169Z,84.50
2022-08-10T04:08:39.298Z,84.34
2022-08-10T04:11:18.940Z,84.43
2022-08-10T04:13:55.519Z,84.61
2022-08-10T04:16:32.416Z,84.71
2022-08-10T04:19:01.685Z,85.02
2022-08-10T04:21:44.410Z,84.88
2022-08-10T04:24:26.907Z,85.00
2022-08-10T04:27:05.332Z,85.33
2022-08-10T04:29:33.506Z,84.95
2022-08-10T04:32:27.345Z,85.06
2022-08-10T04:35:09.743Z,84.98
2022-08-10T04:37:49.432Z,84.57
2022-08-10T04:40:29.351Z,84.68
2022-08-10T04:43:12.959Z,84.98
2022-08-10T04:45:51.708Z,85.07
2022-08-10T04:48:41.510Z,85.20
2022-08-10T04:51:28.370Z,85.04
2022-08-10T04:54:07.096Z,84.90
2022-08-10T04:56:43.364Z,84.89
2022-08-10T04:59:22.574Z,84.83
2022-08-10T05:02:22.035Z,84.76
2022-08-10T05:04:56.481Z,84.39
2022-08-10T05:07:24.018Z,84.04
2022-08-10T05:10:01.383Z,84.01
2022-08-10T05:12:40.573Z,83.73
2022-08-10T05:15:13.948Z,83.90
2022-08-10T05:18:04.714Z,83.63
2022-08-10T05:20:39.783Z,83.69
2022-08-10T05:23:10.944Z,83.82
2022-08-10T05:25:44.241Z,83.58
2022-08-10T05:28:34.132Z,83.53
2022-08-10T05:31:06.612Z,83.29
2022-08-10T05:33:48.929Z,83.22
2022-08-10T05:36:28.575Z,83.12
2022-08-10T05:39:05.516Z,82.88
2022-08-10T05:41:47.760Z,82.95
2022-08-10T05:44:35.107Z,82.54
2022-08-10T05:47:12.891Z,82.53
2022-08-10T05:49:43.683Z,82.50
2022-08-10T05:52:11.489Z,81.75
2022-08-10T05:54:42.636Z,82.10
2022-08-10T05:57:12.713Z,82.17
2022-08-10T06:00:32.953Z,81.64
2022-08-10T06:03:17.066Z,81.58
2022-08-10T06:06:02.100Z,81.35
2022-08-10T06:08:48.464Z,80.90
2022-08-10T06:12:25.620Z,80.96
2022-08-10T06:14:44.248Z,80.80
2022-08-10T06:17:31.797Z,80.65
2022-08-10T06:20:25.404Z,80.79
2022-08-10T06:23:13.090Z,80.67
2022-08-10T06:26:26.744Z,79.87
2022-08-10T06:29:12.306Z,79.41
2022-08-10T06:32:02.742Z,79.40
2022-08-10T06:35:02.047Z,79.22
2022-08-10T06:37:51.500Z,78.53
2022-08-10T06:40:27.227Z,78.19
2022-08-10T06:43:13.917Z,77.75
2022-08-10T06:46:07.957Z,78.02
2022-08-10T06:49:39.084Z,77.75
2022-08-10T06:52:32.965Z,77.30
2022-08-10T06:55:05.236Z,76.76
2022-08-10T06:57:59.824Z,76.08
2022-08-10T07:00:37.953Z,75.98
2022-08-10T07:03:36.336Z,75.69
2022-08-10T07:06:15.880Z,75.72
2022-08-10T07:08:52.653Z,74.44
2022-08-10T07:11:41.319Z,74.46
2022-08-10T07:14:25.229Z,74.18
2022-08-10T07:17:06.139Z,73.28
2022-08-10T07:19:57.640Z,73.50
2022-08-10T07:23:50.720Z,73.51
2022-08-10T07:25:57.016Z,73.82
2022-08-10T07:28:28.825Z,73.55
2022-08-10T07:31:55.099Z,72.53
2022-08-10T07:34:29.754Z,71.54
2022-08-10T07:37:02.906Z,71.51
2022-08-10T07:40:02.261Z,70.66
2022-08-10T07:42:54.584Z,70.59
2022-08-10T07:45:33.991Z,69.96
2022-08-10T07:48:08.327Z,69.21
2022-08-10T07:50:59.055Z,69.35
2022-08-10T07:53:44.698Z,68.87
2022-08-10T07:56:47.914Z,69.31
2022-08-10T07:59:48.642Z,68.47
2022-08-10T08:02:28.926Z,68.26
2022-08-10T08:05:27.543Z,66.83
2022-08-10T08:08:23.616Z,66.38
2022-08-10T08:11:25.929Z,66.35
2022-08-10T08:14:03.767Z,67.37
2022-08-10T08:16:44.345Z,66.62
2022-08-10T08:19:35.898Z,66.54
2022-08-10T08:24:08.089Z,64.95
2022-08-10T08:25:23.760Z,65.76
2022-08-10T08:28:15.447Z,65.99
2022-08-10T08:30:56.036Z,65.50
2022-08-10T08:33:41.105Z,65.79
2022-08-10T08:36:47.204Z,63.71
2022-08-10T08:39:29.536Z,64.09
2022-08-10T08:42:33.449Z,62.45
2022-08-10T08:45:35.017Z,63.18
2022-08-10T08:48:33.489Z,61.80
2022-08-10T08:52:09.293Z,61.73
2022-08-10T08:54:33.003Z,61.76
2022-08-10T08:57:49.203Z,59.73
2022-08-10T09:00:41.635Z,58.63
2022-08-10T09:03:49.727Z,58.53
2022-08-10T09:06:41.821Z,60.14
2022-08-10T09:09:50.742Z,58.58
2022-08-10T09:12:46.285Z,58.38
2022-08-10T09:15:40.611Z,58.67
2022-08-10T09:18:28.752Z,59.33
2022-08-10T09:21:16.557Z,58.28
2022-08-10T09:24:26.328Z,58.65
2022-08-10T09:27:21.334Z,57.98
2022-08-10T09:30:32.164Z,58.41
2022-08-10T09:36:24.248Z,57.50
2022-08-10T09:37:03.200Z,57.60
2022-08-10T09:40:56.143Z,56.79
2022-08-10T09:43:39.005Z,56.26
2022-08-10T09:46:34.454Z,56.80
2022-08-10T09:50:04.445Z,55.98
2022-08-10T09:53:00.303Z,56.61
2022-08-10T09:56:19.336Z,56.32
2022-08-10T10:00:00.337Z,56.71
2022-08-10T10:02:53.680Z,56.75
2022-08-10T10:06:16.618Z,56.21
2022-08-10T10:09:09.779Z,57.47
2022-08-10T10:12:09.331Z,55.62
2022-08-10T10:15:24.843Z,53.34
2022-08-10T10:18:14.447Z,51.01
2022-08-10T10:21:01.663Z,51.71
2022-08-10T10:24:21.109Z,50.65
2022-08-10T10:27:28.146Z,49.75
2022-08-10T10:30:22.491Z,49.83
2022-08-10T10:33:19.286Z,48.82
2022-08-10T10:36:08.579Z,48.12
2022-08-10T10:38:57.058Z,49.69
2022-08-10T10:42:04.376Z,48.00
2022-08-10T10:45:41.656Z,49.40
2022-08-10T10:48:44.621Z,48.41
2022-08-10T10:52:11.255Z,47.65
2022-08-10T10:54:48.379Z,47.01
2022-08-10T10:57:58.562Z,44.02
2022-08-10T11:01:00.084Z,45.67
2022-08-10T11:04:00.288Z,46.41
2022-08-10T11:07:00.500Z,45.93
2022-08-10T11:10:05.637Z,45.57
2022-08-10T11:14:24.651Z,44.06
2022-08-10T11:16:37.023Z,43.17
2022-08-10T11:19:17.475Z,41.75
2022-08-10T11:22:04.905Z,41.47
2022-08-10T11:24:58.372Z,43.36
2022-08-10T11:27:49.348Z,45.07
2022-08-10T11:30:36.676Z,44.22
2022-08-10T11:34:04.100Z,42.22
2022-08-10T11:36:50.151Z,42.61
2022-08-10T11:39:49.294Z,43.51
2022-08-10T11:42:43.939Z,42.87
2022-08-10T11:45:52.412Z,41.96
2022-08-10T11:48:54.129Z,42.50
2022-08-10T11:51:44.124Z,42.66
2022-08-10T11:54:18.285Z,43.96
2022-08-10T11:57:02.204Z,45.11
2022-08-10T11:59:59.439Z,45.09
2022-08-10T12:02:59.272Z,46.56
2022-08-10T12:06:14.358Z,46.53
2022-08-10T12:10:10.024Z,45.86
2022-08-10T12:12:26.430Z,46.63
2022-08-10T12:15:06.922Z,47.31
2022-08-10T12:18:05.009Z,46.58
2022-08-10T12:20:52.614Z,46.81
2022-08-10T12:24:03.163Z,45.67
2022-08-10T12:27:18.585Z,43.87
2022-08-10T12:30:03.213Z,42.99
2022-08-10T12:32:48.832Z,41.96
2022-08-10T12:36:18.329Z,39.87
2022-08-10T12:39:10.267Z,39.90
2022-08-10T12:41:55.143Z,41.03
2022-08-10T12:44:45.840Z,41.57
2022-08-10T12:47:53.607Z,41.17
2022-08-10T12:50:39.768Z,41.09
2022-08-10T12:53:52.635Z,41.66
2022-08-10T12:56:47.723Z,43.46
2022-08-10T12:59:28.833Z,42.35
2022-08-10T13:02:24.490Z,43.04
2022-08-10T13:05:11.292Z,42.48
2022-08-10T13:12:38.549Z,38.33
2022-08-10T13:14:47.676Z,39.65
2022-08-10T13:17:42.913Z,40.72
2022-08-10T13:20:20.858Z,41.09
2022-08-10T13:23:24.262Z,41.58
2022-08-10T13:26:08.642Z,42.54
2022-08-10T13:29:12.881Z,43.11
2022-08-10T13:32:10.114Z,43.27
2022-08-10T13:35:07.533Z,44.26
2022-08-10T13:37:54.511Z,44.76
2022-08-10T13:40:50.034Z,44.77
2022-08-10T13:43:48.790Z,45.41
2022-08-10T13:46:35.806Z,45.42
2022-08-10T13:49:34.963Z,44.47
2022-08-10T13:52:11.813Z,44.06
2022-08-10T13:54:57.168Z,43.86
2022-08-10T13:57:47.665Z,43.55
2022-08-10T14:01:21.951Z,44.30
2022-08-10T14:04:11.290Z,44.23
2022-08-10T14:07:15.595Z,42.88
2022-08-10T14:10:18.324Z,41.62
2022-08-10T14:13:20.570Z,39.14
2022-08-10T14:16:00.218Z,40.17
2022-08-10T14:18:28.705Z,40.10
2022-08-10T14:21:14.879Z,40.96
2022-08-10T14:23:59.791Z,42.02
2022-08-10T14:27:27.560Z,42.29
2022-08-10T14:30:40.396Z,43.67
2022-08-10T14:33:26.394Z,44.68
2022-08-10T14:36:22.520Z,44.91
2022-08-10T14:39:13.068Z,45.17
2022-08-10T14:42:02.943Z,45.45
2022-08-10T14:45:38.596Z,45.38
2022-08-10T14:48:31.744Z,46.45
2022-08-10T14:51:44.168Z,47.28
2022-08-10T14:54:28.228Z,47.65
2022-08-10T14:57:12.119Z,47.71
2022-08-10T15:00:22.569Z,48.30
2022-08-10T15:03:10.808Z,48.60
2022-08-10T15:06:17.969Z,48.36
2022-08-10T15:08:50.191Z,48.49
2022-08-10T15:12:15.712Z,48.17
2022-08-10T15:14:45.625Z,48.73
2022-08-10T15:17:42.917Z,48.77
2022-08-10T15:20:51.657Z,48.39
2022-08-10T15:24:05.147Z,47.70
2022-08-10T15:26:57.516Z,47.80
2022-08-10T15:30:00.970Z,48.05
2022-08-10T15:34:02.231Z,48.43
2022-08-10T15:36:47.782Z,47.80
2022-08-10T15:40:21.767Z,47.98
2022-08-10T15:42:59.188Z,48.05
2022-08-10T15:45:28.120Z,48.09
2022-08-10T15:48:21.438Z,48.25
2022-08-10T15:51:54.122Z,48.27
2022-08-10T15:54:58.174Z,47.89
2022-08-10T15:57:48.578Z,48.08
2022-08-10T16:00:23.473Z,47.10
2022-08-10T16:03:21.992Z,46.91
2022-08-10T16:06:04.063Z,47.09
2022-08-10T16:08:56.652Z,47.35
2022-08-10T16:11:43.977Z,47.41
2022-08-10T16:14:37.730Z,47.69
2022-08-10T16:17:24.683Z,47.77
2022-08-10T16:20:05.402Z,47.63
2022-08-10T16:22:43.583Z,47.62
2022-08-10T16:25:23.724Z,48.16
2022-08-10T16:28:35.157Z,48.10
2022-08-10T16:31:15.802Z,48.42
2022-08-10T16:33:53.826Z,48.53
2022-08-10T16:36:51.043Z,48.44
2022-08-10T16:39:59.650Z,48.94
2022-08-10T16:42:37.922Z,48.73
2022-08-10T16:45:27.125Z,49.16
2022-08-10T16:48:02.492Z,48.81
2022-08-10T16:50:54.206Z,49.16
2022-08-10T16:53:26.365Z,49.24
2022-08-10T16:56:02.025Z,49.49
2022-08-10T16:58:46.854Z,50.12
2022-08-10T17:01:38.234Z,50.22
2022-08-10T17:04:18.847Z,50.56
2022-08-10T17:07:14.779Z,50.34
2022-08-10T17:10:08.506Z,50.82
2022-08-10T17:12:41.841Z,51.02
2022-08-10T17:15:26.720Z,51.21
2022-08-10T17:18:05.055Z,51.57
2022-08-10T17:21:12.314Z,51.85
2022-08-10T17:23:54.028Z,51.32
2022-08-10T17:26:38.344Z,51.60
2022-08-10T17:29:59.010Z,52.55
2022-08-10T17:32:51.933Z,52.77
2022-08-10T17:35:26.305Z,52.54
2022-08-10T17:38:03.842Z,53.43
2022-08-10T17:40:55.126Z,53.43
2022-08-10T17:44:00.918Z,53.57
2022-08-10T17:46:49.538Z,53.89
2022-08-10T17:49:55.620Z,54.04
2022-08-10T17:52:42.459Z,54.12
2022-08-10T17:55:30.617Z,53.62
2022-08-10T17:58:19.661Z,54.29
2022-08-10T18:01:38.456Z,53.97
2022-08-10T18:04:13.338Z,54.08
2022-08-10T18:07:08.783Z,54.74
2022-08-10T18:09:53.131Z,54.98
2022-08-10T18:12:38.940Z,55.38
2022-08-10T18:15:38.319Z,54.99
2022-08-10T18:18:31.082Z,55.54
2022-08-10T18:21:34.945Z,55.39
2022-08-10T18:24:23.768Z,55.70
2022-08-10T18:27:22.958Z,56.26
2022-08-10T18:30:33.082Z,56.19
2022-08-10T18:33:17.131Z,56.35
2022-08-10T18:36:06.025Z,56.42
2022-08-10T18:39:07.709Z,56.44
2022-08-10T18:42:02.413Z,56.43
2022-08-10T18:44:44.403Z,56.92
2022-08-10T18:47:42.028Z,57.09
2022-08-10T18:50:52.889Z,57.20
2022-08-10T18:53:51.887Z,57.87
2022-08-10T18:57:24.512Z,58.32
2022-08-10T19:00:47.021Z,57.96
2022-08-10T19:03:29.695Z,58.48
2022-08-10T19:06:20.815Z,58.33
2022-08-10T19:09:41.459Z,58.40
2022-08-10T19:12:36.417Z,58.62
2022-08-10T19:15:43.907Z,58.23
2022-08-10T19:18:36.180Z,58.62
2022-08-10T19:22:05.176Z,58.64
2022-08-10T19:25:08.054Z,59.50
2022-08-10T19:28:56.642Z,58.98
2022-08-10T19:31:52.290Z,58.96
2022-08-10T19:34:57.290Z,58.78
2022-08-10T19:38:00.650Z,58.89
2022-08-10T19:41:09.862Z,59.24
2022-08-10T19:44:33.760Z,59.24
2022-08-10T19:47:49.225Z,59.70
2022-08-10T19:50:49.406Z,60.09
2022-08-10T19:54:01.480Z,60.44
2022-08-10T19:56:49.527Z,60.31
2022-08-10T20:00:15.952Z,60.57
2022-08-10T20:04:00.257Z,60.81
2022-08-10T20:07:09.318Z,61.42
2022-08-10T20:10:24.489Z,61.56
2022-08-10T20:14:23.106Z,61.98
2022-08-10T20:17:51.436Z,62.17
2022-08-10T20:34:40.157Z,62.79
2022-08-10T20:43:40.615Z,63.01
2022-08-10T20:48:18.243Z,63.20
2022-08-10T20:55:14.587Z,63.67
2022-08-10T20:58:11.041Z,63.51
2022-08-10T21:01:14.389Z,63.44
2022-08-10T21:04:29.776Z,63.34
2022-08-10T21:07:28.363Z,64.14
2022-08-10T21:10:38.305Z,64.34
2022-08-10T21:13:35.285Z,64.45
2022-08-10T21:16:43.046Z,64.93
2022-08-10T21:19:58.631Z,65.63
2022-08-10T21:22:50.807Z,65.50
2022-08-10T21:25:32.376Z,65.87
2022-08-10T21:28:29.192Z,66.24
2022-08-10T21:31:21.782Z,66.54
2022-08-10T21:34:31.832Z,66.84
2022-08-10T21:37:39.774Z,67.39
2022-08-10T21:40:34.735Z,67.33
2022-08-10T21:43:48.194Z,67.19
2022-08-10T21:46:55.153Z,67.33
2022-08-10T21:50:08.615Z,67.07
2022-08-10T21:53:43.739Z,67.40
2022-08-10T21:57:20.733Z,67.14
2022-08-10T22:03:49.459Z,67.37
2022-08-10T22:06:55.335Z,67.73
2022-08-10T22:09:54.872Z,67.83
2022-08-10T22:12:56.285Z,67.82
2022-08-10T22:16:11.993Z,68.14
2022-08-10T22:19:21.176Z,68.59
2022-08-10T22:22:30.210Z,68.66
2022-08-10T22:25:52.073Z,68.93
2022-08-10T22:28:40.819Z,69.26
2022-08-10T22:31:55.215Z,69.40
2022-08-10T22:35:09.487Z,69.49
2022-08-10T22:38:34.156Z,69.84
2022-08-10T22:41:49.137Z,69.73
2022-08-10T22:44:48.223Z,69.76
2022-08-10T22:47:49.402Z,69.61
2022-08-10T22:50:32.675Z,69.71
2022-08-10T22:53:15.345Z,69.67
2022-08-10T22:56:41.123Z,69.71
2022-08-10T22:59:39.348Z,69.79
2022-08-10T23:02:22.464Z,69.80
2022-08-10T23:05:07.519Z,69.88
2022-08-10T23:08:03.865Z,69.99
2022-08-10T23:10:54.291Z,70.12
2022-08-10T23:13:53.982Z,69.94
2022-08-10T23:16:59.801Z,69.94
2022-08-10T23:20:09.628Z,69.90
2022-08-10T23:22:50.511Z,70.27
2022-08-10T23:25:30.103Z,70.62
2022-08-10T23:28:39.119Z,70.88
2022-08-10T23:32:00.668Z,70.54
2022-08-10T23:34:36.925Z,70.67
2022-08-10T23:37:21.263Z,70.56
2022-08-10T23:39:54.634Z,70.77
2022-08-10T23:42:40.077Z,70.67
2022-08-10T23:45:53.384Z,70.84
2022-08-10T23:48:30.378Z,70.64
2022-08-10T23:51:25.728Z,70.44
2022-08-10T23:54:16.637Z,70.14
2022-08-10T23:57:01.114Z,69.95
2022-08-10T23:59:41.517Z,70.07
